Time;durP1;ratioP1;P1;durP2;ratioP2;P2;SDS_P1;SDS_P2;PMS_P1;PMS_P2;Temp;Humidity;BMP_temperature;BMP_pressure;BME280_temperature;BME280_humidity;BME280_pressure;Samples;Min_cycle;Max_cycle;Signal;HPM_P1;HPM_P2
2023/05/20 00:02:14;;;;;;;4.40;2.58;;;;;;;;;;5054633;28;20056;-61
2023/05/20 00:04:42;;;;;;;3.90;3.00;;;;;;;;;;5060017;28;20045;-60
2023/05/20 00:07:09;;;;;;;5.88;2.83;;;;;;;;;;5073649;28;20060;-61
2023/05/20 00:09:37;;;;;;;5.47;2.85;;;;;;;;;;5054952;28;20417;-60
2023/05/20 00:12:05;;;;;;;3.83;2.78;;;;;;;;;;5053359;28;20410;-60
2023/05/20 00:14:31;;;;;;;3.63;2.40;;;;;;;;;;5052187;28;20060;-60
2023/05/20 00:16:58;;;;;;;3.42;2.35;;;;;;;;;;5052062;28;20053;-60
2023/05/20 00:19:25;;;;;;;3.30;2.53;;;;;;;;;;5053849;28;20056;-60
2023/05/20 00:21:56;;;;;;;5.07;2.63;;;;;;;;;;5071680;28;20068;-59
2023/05/20 00:24:23;;;;;;;4.85;2.90;;;;;;;;;;5064037;28;20052;-60
2023/05/20 00:26:52;;;;;;;3.63;2.75;;;;;;;;;;5053264;28;20115;-60
2023/05/20 00:29:22;;;;;;;5.22;2.80;;;;;;;;;;5058270;28;20052;-60
2023/05/20 00:31:48;;;;;;;3.88;3.15;;;;;;;;;;5062264;28;20055;-60
2023/05/20 00:34:16;;;;;;;4.05;2.97;;;;;;;;;;5056757;28;20045;-59
2023/05/20 00:36:44;;;;;;;4.32;3.10;;;;;;;;;;5071368;28;20059;-60
2023/05/20 00:39:12;;;;;;;3.72;2.63;;;;;;;;;;5058263;28;20056;-60
2023/05/20 00:41:39;;;;;;;3.75;2.72;;;;;;;;;;5054294;28;20053;-60
2023/05/20 00:44:06;;;;;;;6.18;3.05;;;;;;;;;;5053261;28;20053;-60
2023/05/20 00:46:33;;;;;;;3.75;2.80;;;;;;;;;;5068993;28;20052;-60
2023/05/20 00:49:00;;;;;;;4.18;2.60;;;;;;;;;;5059667;28;20052;-60
2023/05/20 00:51:27;;;;;;;4.03;2.78;;;;;;;;;;5052603;28;20063;-60
2023/05/20 00:53:54;;;;;;;3.50;2.83;;;;;;;;;;5052868;28;20049;-60
2023/05/20 00:56:22;;;;;;;3.85;2.33;;;;;;;;;;5070072;28;20052;-60
2023/05/20 00:58:49;;;;;;;4.40;2.60;;;;;;;;;;5073305;28;20066;-60
2023/05/20 01:01:16;;;;;;;8.18;2.90;;;;;;;;;;5054215;28;20052;-60
2023/05/20 01:03:43;;;;;;;4.07;2.40;;;;;;;;;;5052474;28;20056;-60
2023/05/20 01:06:10;;;;;;;3.58;2.80;;;;;;;;;;5055444;28;20044;-60
2023/05/20 01:08:40;;;;;;;5.97;3.30;;;;;;;;;;5072155;28;20496;-60
2023/05/20 01:11:09;;;;;;;;;;;;;;;;;;5065005;28;20493;-60
2023/05/20 01:13:41;;;;;;;5.25;3.03;;;;;;;;;;5071368;28;19921;-60
2023/05/20 01:16:08;;;;;;;6.60;3.00;;;;;;;;;;5064971;28;20449;-60
2023/05/20 01:18:35;;;;;;;5.20;4.03;;;;;;;;;;5063278;28;20064;-60
2023/05/20 01:21:02;;;;;;;6.15;4.53;;;;;;;;;;5061127;28;20048;-60
2023/05/20 01:23:37;;;;;;;7.22;4.70;;;;;;;;;;5052261;28;20382;-60
2023/05/20 01:26:05;;;;;;;5.35;3.60;;;;;;;;;;5052476;28;20053;-60
2023/05/20 01:28:32;;;;;;;7.22;4.63;;;;;;;;;;5052726;28;20513;-60
2023/05/20 01:31:00;;;;;;;6.35;4.32;;;;;;;;;;5068833;28;20398;-60
2023/05/20 01:33:28;;;;;;;5.80;3.70;;;;;;;;;;5054728;28;20068;-60
2023/05/20 01:35:55;;;;;;;5.95;3.92;;;;;;;;;;5053151;28;20517;-61
2023/05/20 01:38:23;;;;;;;5.57;3.60;;;;;;;;;;5059715;28;20059;-60
2023/05/20 01:40:52;;;;;;;3.97;3.08;;;;;;;;;;5072630;28;20071;-60
2023/05/20 01:43:19;;;;;;;4.72;3.53;;;;;;;;;;5061611;28;20509;-60
2023/05/20 01:45:45;;;;;;;4.60;3.20;;;;;;;;;;5051986;28;20044;-60
2023/05/20 01:48:12;;;;;;;5.90;3.70;;;;;;;;;;5052146;28;20052;-60
2023/05/20 01:50:39;;;;;;;6.03;3.70;;;;;;;;;;5056246;28;20056;-60
2023/05/20 01:53:07;;;;;;;5.57;3.47;;;;;;;;;;5058010;28;20509;-59
2023/05/20 01:55:34;;;;;;;4.50;3.20;;;;;;;;;;5052111;28;20056;-60
2023/05/20 01:58:02;;;;;;;5.18;3.15;;;;;;;;;;5055891;28;20405;-60
2023/05/20 02:00:29;;;;;;;6.93;3.30;;;;;;;;;;5072507;28;20428;-60
2023/05/20 02:02:56;;;;;;;5.30;3.40;;;;;;;;;;5067864;28;20053;-60
2023/05/20 02:05:23;;;;;;;4.22;3.15;;;;;;;;;;5057629;28;20524;-61
2023/05/20 02:07:49;;;;;;;5.78;3.25;;;;;;;;;;5068051;28;20473;-60
2023/05/20 02:10:16;;;;;;;4.57;2.97;;;;;;;;;;5052494;28;20060;-60
2023/05/20 02:12:46;;;;;;;5.43;3.00;;;;;;;;;;5071602;28;20061;-60
2023/05/20 02:15:15;;;;;;;4.43;3.00;;;;;;;;;;5071298;28;20056;-60
2023/05/20 02:17:43;;;;;;;4.82;3.08;;;;;;;;;;5072629;28;20059;-60
2023/05/20 02:20:10;;;;;;;4.43;3.28;;;;;;;;;;5068964;28;20052;-61
2023/05/20 02:22:38;;;;;;;5.30;3.08;;;;;;;;;;5061052;28;20056;-60
2023/05/20 02:25:06;;;;;;;3.53;2.63;;;;;;;;;;5062436;28;20049;-60
2023/05/20 02:27:32;;;;;;;3.67;2.80;;;;;;;;;;5060847;28;20053;-60
2023/05/20 02:30:02;;;;;;;4.35;3.10;;;;;;;;;;5060079;28;20044;-59
2023/05/20 02:32:32;;;;;;;3.97;2.70;;;;;;;;;;5053293;28;20498;-60
2023/05/20 02:34:59;;;;;;;3.60;2.80;;;;;;;;;;5066222;28;20055;-60
2023/05/20 02:37:26;;;;;;;4.78;3.33;;;;;;;;;;5058351;28;20474;-59
2023/05/20 02:39:52;;;;;;;4.40;3.15;;;;;;;;;;5052207;28;20053;-58
2023/05/20 02:42:19;;;;;;;3.83;2.92;;;;;;;;;;5058432;28;20055;-56
2023/05/20 02:44:46;;;;;;;3.45;2.85;;;;;;;;;;5073211;28;20072;-57
2023/05/20 02:47:13;;;;;;;4.03;2.90;;;;;;;;;;5062038;28;20065;-57
2023/05/20 02:49:42;;;;;;;4.65;2.83;;;;;;;;;;5054699;28;20060;-57
2023/05/20 02:52:08;;;;;;;4.43;3.10;;;;;;;;;;5054808;28;20067;-56
2023/05/20 02:54:35;;;;;;;9.38;3.45;;;;;;;;;;5054972;28;20045;-57
2023/05/20 02:57:02;;;;;;;5.65;3.00;;;;;;;;;;5069279;28;20056;-57
2023/05/20 02:59:31;;;;;;;5.15;3.10;;;;;;;;;;5074471;28;20053;-57
2023/05/20 03:01:58;;;;;;;4.43;3.20;;;;;;;;;;5058716;28;20417;-56
2023/05/20 03:04:25;;;;;;;4.45;2.72;;;;;;;;;;5055147;28;20056;-57
2023/05/20 03:06:56;;;;;;;4.75;3.03;;;;;;;;;;5067405;28;20057;-57
2023/05/20 03:09:23;;;;;;;5.03;3.03;;;;;;;;;;5062297;28;20056;-56
2023/05/20 03:11:50;;;;;;;5.22;3.05;;;;;;;;;;5064997;28;20490;-57
2023/05/20 03:14:17;;;;;;;4.15;3.30;;;;;;;;;;5057401;28;20421;-57
2023/05/20 03:16:44;;;;;;;3.85;2.97;;;;;;;;;;5054431;28;20502;-56
2023/05/20 03:19:11;;;;;;;5.22;2.60;;;;;;;;;;5060816;28;20513;-56
2023/05/20 03:21:38;;;;;;;4.35;2.90;;;;;;;;;;5054817;28;20414;-56
2023/05/20 03:24:06;;;;;;;3.47;2.78;;;;;;;;;;5062817;28;20040;-57
2023/05/20 03:26:36;;;;;;;4.47;3.35;;;;;;;;;;5058094;28;20482;-57
2023/05/20 03:29:03;;;;;;;4.35;3.00;;;;;;;;;;5061973;28;20060;-56
2023/05/20 03:31:29;;;;;;;3.95;2.58;;;;;;;;;;5069075;28;20486;-56
2023/05/20 03:33:56;;;;;;;4.13;2.28;;;;;;;;;;5074315;28;20052;-57
2023/05/20 03:36:23;;;;;;;3.22;2.72;;;;;;;;;;5059608;28;20059;-56
2023/05/20 03:38:50;;;;;;;6.07;3.10;;;;;;;;;;5059017;28;20053;-56
2023/05/20 03:41:18;;;;;;;6.65;3.10;;;;;;;;;;5074844;28;20056;-56
2023/05/20 03:43:45;;;;;;;5.53;3.13;;;;;;;;;;5066731;28;20052;-56
2023/05/20 03:46:12;;;;;;;4.82;3.20;;;;;;;;;;5054098;28;20041;-56
2023/05/20 03:48:38;;;;;;;5.70;2.85;;;;;;;;;;5054649;28;20060;-56
2023/05/20 03:51:05;;;;;;;3.63;3.00;;;;;;;;;;5053799;28;20494;-56
2023/05/20 03:53:32;;;;;;;5.07;2.88;;;;;;;;;;5056661;28;20059;-56
2023/05/20 03:55:59;;;;;;;4.82;3.08;;;;;;;;;;5055087;28;20430;-56
2023/05/20 03:58:30;;;;;;;3.90;3.45;;;;;;;;;;5069776;28;20052;-56
2023/05/20 04:00:56;;;;;;;5.78;3.42;;;;;;;;;;5053541;28;20049;-56
2023/05/20 04:03:23;;;;;;;6.25;3.80;;;;;;;;;;5070748;28;20405;-56
2023/05/20 04:05:50;;;;;;;3.45;3.05;;;;;;;;;;5073883;28;20049;-56
2023/05/20 04:08:17;;;;;;;5.10;3.30;;;;;;;;;;5055506;28;20391;-56
2023/05/20 04:10:44;;;;;;;5.05;3.40;;;;;;;;;;5057109;28;20056;-56
2023/05/20 04:13:11;;;;;;;4.25;3.13;;;;;;;;;;5066362;28;20052;-56
2023/05/20 04:15:40;;;;;;;4.47;3.40;;;;;;;;;;5055752;28;20049;-56
2023/05/20 04:18:07;;;;;;;6.13;3.57;;;;;;;;;;5060107;28;20407;-56
2023/05/20 04:20:34;;;;;;;5.88;3.20;;;;;;;;;;5053112;28;20049;-56
2023/05/20 04:23:00;;;;;;;3.85;3.20;;;;;;;;;;5072754;28;20052;-57
2023/05/20 04:25:27;;;;;;;5.65;3.40;;;;;;;;;;5056505;28;20052;-56
2023/05/20 04:27:56;;;;;;;3.92;2.67;;;;;;;;;;5053584;28;20049;-56
2023/05/20 04:30:23;;;;;;;4.40;2.90;;;;;;;;;;5063918;28;20409;-56
2023/05/20 04:32:51;;;;;;;3.40;2.53;;;;;;;;;;5065172;28;20052;-56
2023/05/20 04:35:18;;;;;;;4.70;3.20;;;;;;;;;;5052834;28;20060;-57
2023/05/20 04:37:47;;;;;;;4.82;3.10;;;;;;;;;;5053041;28;20060;-57
2023/05/20 04:40:14;;;;;;;5.57;3.55;;;;;;;;;;5073263;28;20056;-57
2023/05/20 04:42:42;;;;;;;4.43;3.45;;;;;;;;;;5059832;28;20064;-57
2023/05/20 04:45:09;;;;;;;5.97;3.03;;;;;;;;;;5073510;28;20059;-57
2023/05/20 04:47:38;;;;;;;5.20;3.65;;;;;;;;;;5064007;28;20513;-56
2023/05/20 04:50:09;;;;;;;5.18;3.20;;;;;;;;;;5053328;28;20055;-57
2023/05/20 04:52:36;;;;;;;7.30;3.50;;;;;;;;;;5053003;28;20064;-57
2023/05/20 04:55:03;;;;;;;5.50;3.40;;;;;;;;;;5053380;28;20045;-56
2023/05/20 04:57:32;;;;;;;5.07;3.15;;;;;;;;;;5052420;28;20049;-57
2023/05/20 05:00:00;;;;;;;4.78;3.00;;;;;;;;;;5052473;28;20048;-57
2023/05/20 05:02:26;;;;;;;3.80;2.80;;;;;;;;;;5058802;28;20049;-57
2023/05/20 05:04:53;;;;;;;5.60;3.53;;;;;;;;;;5063785;28;20044;-57
2023/05/20 05:07:21;;;;;;;5.68;3.95;;;;;;;;;;5060501;28;20052;-57
2023/05/20 05:09:48;;;;;;;4.80;3.28;;;;;;;;;;5052054;28;20059;-57
2023/05/20 05:12:15;;;;;;;7.00;3.22;;;;;;;;;;5057796;28;20061;-57
2023/05/20 05:14:42;;;;;;;4.10;2.92;;;;;;;;;;5064391;28;20052;-57
2023/05/20 05:17:08;;;;;;;4.75;3.30;;;;;;;;;;5051754;28;20067;-57
2023/05/20 05:19:35;;;;;;;4.80;2.83;;;;;;;;;;5060098;28;20059;-57
2023/05/20 05:22:02;;;;;;;4.25;3.10;;;;;;;;;;5070976;28;20056;-56
2023/05/20 05:24:30;;;;;;;4.03;2.97;;;;;;;;;;5067608;28;20414;-57
2023/05/20 05:26:57;;;;;;;5.07;3.22;;;;;;;;;;5051509;28;20060;-57
2023/05/20 05:29:24;;;;;;;4.78;3.05;;;;;;;;;;5054902;28;20053;-57
2023/05/20 05:31:51;;;;;;;3.72;2.85;;;;;;;;;;5052135;28;20060;-57
2023/05/20 05:34:17;;;;;;;5.15;3.00;;;;;;;;;;5051092;28;20486;-57
2023/05/20 05:36:44;;;;;;;4.22;3.22;;;;;;;;;;5055473;28;20052;-57
2023/05/20 05:39:11;;;;;;;5.20;3.08;;;;;;;;;;5060171;28;20053;-57
2023/05/20 05:41:39;;;;;;;5.15;3.20;;;;;;;;;;5071392;28;20060;-57
2023/05/20 05:44:06;;;;;;;4.05;3.10;;;;;;;;;;5066493;28;20048;-57
2023/05/20 05:46:33;;;;;;;9.30;3.65;;;;;;;;;;5052831;28;20052;-57
2023/05/20 05:49:00;;;;;;;3.70;2.60;;;;;;;;;;5053051;28;20060;-57
2023/05/20 05:51:27;;;;;;;5.30;3.28;;;;;;;;;;5062679;28;20418;-57
2023/05/20 05:53:54;;;;;;;4.88;3.22;;;;;;;;;;5056585;28;20497;-57
2023/05/20 05:56:21;;;;;;;5.10;3.20;;;;;;;;;;5063255;28;20049;-61
2023/05/20 05:58:49;;;;;;;6.60;3.00;;;;;;;;;;5058309;28;20425;-60
2023/05/20 06:01:16;;;;;;;3.95;2.90;;;;;;;;;;5051544;28;20060;-60
2023/05/20 06:03:43;;;;;;;4.50;2.80;;;;;;;;;;5051346;28;20057;-60
2023/05/20 06:06:10;;;;;;;4.28;2.78;;;;;;;;;;5051301;28;20383;-60
2023/05/20 06:08:36;;;;;;;4.95;3.22;;;;;;;;;;5052331;28;20049;-60
2023/05/20 06:11:03;;;;;;;5.10;2.92;;;;;;;;;;5050186;28;20044;-60
2023/05/20 06:13:30;;;;;;;5.20;3.00;;;;;;;;;;5052742;28;20055;-60
2023/05/20 06:15:58;;;;;;;4.22;3.08;;;;;;;;;;5059777;28;20044;-60
2023/05/20 06:18:25;;;;;;;4.80;3.17;;;;;;;;;;5073264;28;20056;-60
2023/05/20 06:20:54;;;;;;;3.85;2.92;;;;;;;;;;5065467;28;20482;-60
2023/05/20 06:23:21;;;;;;;4.22;2.50;;;;;;;;;;5056085;28;20059;-60
2023/05/20 06:25:48;;;;;;;5.53;2.90;;;;;;;;;;5056628;28;20417;-60
2023/05/20 06:28:15;;;;;;;5.68;2.97;;;;;;;;;;5054757;28;20052;-60
2023/05/20 06:30:42;;;;;;;5.65;3.38;;;;;;;;;;5068790;28;20060;-59
2023/05/20 06:33:10;;;;;;;6.03;2.95;;;;;;;;;;5054816;28;20048;-59
2023/05/20 06:35:37;;;;;;;5.60;2.80;;;;;;;;;;5063772;28;20052;-60
2023/05/20 06:38:04;;;;;;;4.05;2.75;;;;;;;;;;5073857;28;20052;-60
2023/05/20 06:40:30;;;;;;;3.60;2.70;;;;;;;;;;5063515;28;20067;-60
2023/05/20 06:42:57;;;;;;;5.63;3.20;;;;;;;;;;5055339;28;20080;-60
2023/05/20 06:45:24;;;;;;;4.65;3.17;;;;;;;;;;5057610;28;20065;-59
2023/05/20 06:47:52;;;;;;;4.20;3.08;;;;;;;;;;5054946;28;20049;-60
2023/05/20 06:50:21;;;;;;;5.32;3.05;;;;;;;;;;5055152;28;20056;-60
2023/05/20 06:52:48;;;;;;;4.15;3.28;;;;;;;;;;5067083;28;20052;-59
2023/05/20 06:55:14;;;;;;;4.72;3.30;;;;;;;;;;5074071;28;20167;-59
2023/05/20 06:57:41;;;;;;;2.95;2.55;;;;;;;;;;5069050;28;20072;-59
2023/05/20 07:00:09;;;;;;;5.45;3.13;;;;;;;;;;5056351;28;20056;-60
2023/05/20 07:02:35;;;;;;;4.68;3.10;;;;;;;;;;5065261;28;20052;-59
2023/05/20 07:05:02;;;;;;;4.85;3.50;;;;;;;;;;5072940;28;20478;-60
2023/05/20 07:07:31;;;;;;;3.53;2.83;;;;;;;;;;5064710;28;20063;-60
2023/05/20 07:09:58;;;;;;;4.43;2.90;;;;;;;;;;5072352;28;20524;-60
2023/05/20 07:12:24;;;;;;;4.90;3.00;;;;;;;;;;5063029;28;20063;-59
2023/05/20 07:14:51;;;;;;;5.70;3.10;;;;;;;;;;5056527;28;20060;-59
2023/05/20 07:17:18;;;;;;;4.50;3.13;;;;;;;;;;5056705;28;20045;-59
2023/05/20 07:19:45;;;;;;;4.30;3.28;;;;;;;;;;5054804;28;20413;-59
2023/05/20 07:22:12;;;;;;;3.88;3.17;;;;;;;;;;5053542;28;20052;-59
2023/05/20 07:24:40;;;;;;;5.03;3.70;;;;;;;;;;5073681;28;20052;-60
2023/05/20 07:27:07;;;;;;;5.30;3.65;;;;;;;;;;5074310;28;20052;-59
2023/05/20 07:29:34;;;;;;;4.95;3.45;;;;;;;;;;5057929;28;20061;-59
2023/05/20 07:32:01;;;;;;;5.55;3.90;;;;;;;;;;5056114;28;20418;-60
2023/05/20 07:34:28;;;;;;;5.80;3.60;;;;;;;;;;5054627;28;20057;-60
2023/05/20 07:36:55;;;;;;;5.63;3.55;;;;;;;;;;5057413;28;20052;-60
2023/05/20 07:39:22;;;;;;;5.40;3.75;;;;;;;;;;5065140;28;20083;-61
2023/05/20 07:41:50;;;;;;;4.85;3.55;;;;;;;;;;5073873;28;20056;-59
2023/05/20 07:44:20;;;;;;;4.70;3.72;;;;;;;;;;5055988;28;20060;-59
2023/05/20 07:46:47;;;;;;;5.55;3.78;;;;;;;;;;5054087;28;20060;-59
2023/05/20 07:49:14;;;;;;;5.30;4.15;;;;;;;;;;5056041;28;20219;-60
2023/05/20 07:51:41;;;;;;;6.35;3.63;;;;;;;;;;5053756;28;20056;-61
2023/05/20 07:54:08;;;;;;;4.95;4.03;;;;;;;;;;5074266;28;20059;-60
2023/05/20 07:56:35;;;;;;;5.97;4.13;;;;;;;;;;5073757;28;20055;-60
2023/05/20 07:59:03;;;;;;;5.93;4.10;;;;;;;;;;5073557;28;20059;-60
2023/05/20 08:01:29;;;;;;;4.38;3.70;;;;;;;;;;5060206;28;20060;-60
2023/05/20 08:03:56;;;;;;;5.28;3.70;;;;;;;;;;5056497;28;20521;-61
2023/05/20 08:06:24;;;;;;;12.80;4.05;;;;;;;;;;5062974;28;20053;-61
2023/05/20 08:08:53;;;;;;;6.00;3.83;;;;;;;;;;5053588;28;20504;-60
2023/05/20 08:11:20;;;;;;;9.95;8.15;;;;;;;;;;5059963;28;20057;-60
2023/05/20 08:13:47;;;;;;;4.93;3.67;;;;;;;;;;5053366;28;20420;-60
2023/05/20 08:16:15;;;;;;;6.18;4.20;;;;;;;;;;5059955;28;20055;-60
2023/05/20 08:18:42;;;;;;;8.52;4.28;;;;;;;;;;5062853;28;20045;-60
2023/05/20 08:21:09;;;;;;;5.53;3.90;;;;;;;;;;5052968;28;20426;-60
2023/05/20 08:23:36;;;;;;;6.32;4.03;;;;;;;;;;5070863;28;20044;-60
2023/05/20 08:26:03;;;;;;;5.60;4.38;;;;;;;;;;5071591;28;20060;-60
2023/05/20 08:28:30;;;;;;;5.32;4.20;;;;;;;;;;5056677;28;20057;-60
2023/05/20 08:30:57;;;;;;;5.45;4.07;;;;;;;;;;5052576;28;20048;-60
2023/05/20 08:33:26;;;;;;;4.95;3.90;;;;;;;;;;5055725;28;20060;-60
2023/05/20 08:35:52;;;;;;;6.15;4.40;;;;;;;;;;5066323;28;20056;-60
2023/05/20 08:38:19;;;;;;;6.72;4.35;;;;;;;;;;5057569;28;20470;-60
2023/05/20 08:40:51;;;;;;;6.45;4.63;;;;;;;;;;5064562;28;20057;-61
2023/05/20 08:43:18;;;;;;;6.07;4.20;;;;;;;;;;5053282;28;20262;-60
2023/05/20 08:45:45;;;;;;;5.95;4.45;;;;;;;;;;5053198;28;20057;-60
2023/05/20 08:48:11;;;;;;;5.25;4.25;;;;;;;;;;5052533;28;20045;-60
2023/05/20 08:50:40;;;;;;;5.10;4.60;;;;;;;;;;5071711;28;20056;-60
2023/05/20 08:53:07;;;;;;;5.57;3.75;;;;;;;;;;5071918;28;20482;-61
2023/05/20 08:55:37;;;;;;;7.43;4.82;;;;;;;;;;5063707;28;20064;-60
2023/05/20 08:58:04;;;;;;;5.95;4.53;;;;;;;;;;5059544;28;20406;-60
2023/05/20 09:00:31;;;;;;;4.72;3.88;;;;;;;;;;5073022;28;20056;-61
2023/05/20 09:02:59;;;;;;;7.70;4.07;;;;;;;;;;5064389;28;20049;-60
2023/05/20 09:05:26;;;;;;;6.97;4.95;;;;;;;;;;5062232;28;20052;-60
2023/05/20 09:08:04;;;;;;;6.82;4.53;;;;;;;;;;5070696;28;20044;-60
2023/05/20 09:10:31;;;;;;;6.32;4.70;;;;;;;;;;5067882;28;20052;-61
2023/05/20 09:12:57;;;;;;;6.18;4.63;;;;;;;;;;5065067;28;20056;-61
2023/05/20 09:15:24;;;;;;;6.00;4.55;;;;;;;;;;5051909;28;20053;-60
2023/05/20 09:17:51;;;;;;;6.65;4.68;;;;;;;;;;5063020;28;20056;-60
2023/05/20 09:20:21;;;;;;;7.13;4.65;;;;;;;;;;5052460;28;20053;-60
2023/05/20 09:22:51;;;;;;;5.80;4.88;;;;;;;;;;5063701;28;20048;-60
2023/05/20 09:25:20;;;;;;;6.80;5.28;;;;;;;;;;5057910;28;20060;-60
2023/05/20 09:27:47;;;;;;;5.80;5.13;;;;;;;;;;5062004;28;20063;-60
2023/05/20 09:30:13;;;;;;;5.38;4.80;;;;;;;;;;5069640;28;20493;-60
2023/05/20 09:32:40;;;;;;;6.78;5.07;;;;;;;;;;5073014;28;20052;-61
2023/05/20 09:35:07;;;;;;;7.68;5.65;;;;;;;;;;5057194;28;20498;-59
2023/05/20 09:37:34;;;;;;;9.80;5.00;;;;;;;;;;5050983;28;20063;-60
2023/05/20 09:40:08;;;;;;;6.15;5.05;;;;;;;;;;5050645;28;20053;-59
2023/05/20 09:42:40;;;;;;;6.20;4.90;;;;;;;;;;5052575;28;20067;-59
2023/05/20 09:45:08;;;;;;;6.45;5.00;;;;;;;;;;5051700;28;20060;-59
2023/05/20 09:47:36;;;;;;;6.70;5.18;;;;;;;;;;5055332;28;20041;-60
2023/05/20 09:50:03;;;;;;;6.60;5.05;;;;;;;;;;5071943;28;20064;-59
2023/05/20 09:52:31;;;;;;;6.18;5.28;;;;;;;;;;5056975;28;20059;-59
2023/05/20 09:55:01;;;;;;;6.35;4.88;;;;;;;;;;5075621;28;20060;-59
2023/05/20 09:57:32;;;;;;;6.03;5.38;;;;;;;;;;5074790;28;20618;-59
2023/05/20 10:00:00;;;;;;;7.13;4.57;;;;;;;;;;5075349;28;20413;-61
2023/05/20 10:02:27;;;;;;;5.70;5.00;;;;;;;;;;5074629;28;20063;-60
2023/05/20 10:04:55;;;;;;;6.18;5.55;;;;;;;;;;5055512;28;20057;-60
2023/05/20 10:07:28;;;;;;;5.78;5.18;;;;;;;;;;5061980;28;20057;-60
2023/05/20 10:09:59;;;;;;;5.72;5.20;;;;;;;;;;5055582;28;20052;-60
2023/05/20 10:12:31;;;;;;;5.30;4.80;;;;;;;;;;5066240;28;20067;-60
2023/05/20 10:15:04;;;;;;;7.45;5.32;;;;;;;;;;5062841;28;20056;-60
2023/05/20 10:17:36;;;;;;;5.80;5.10;;;;;;;;;;5070781;28;20469;-60
2023/05/20 10:20:05;;;;;;;6.85;4.85;;;;;;;;;;5074569;28;20413;-61
2023/05/20 10:22:31;;;;;;;6.05;5.30;;;;;;;;;;5065559;28;20059;-60
2023/05/20 10:24:59;;;;;;;6.32;5.07;;;;;;;;;;5065286;28;20056;-60
2023/05/20 10:27:26;;;;;;;6.82;5.57;;;;;;;;;;5058667;28;20056;-61
2023/05/20 10:29:53;;;;;;;5.07;4.55;;;;;;;;;;5055756;28;20057;-60
2023/05/20 10:32:28;;;;;;;5.60;4.93;;;;;;;;;;5055164;28;20187;-60
2023/05/20 10:34:58;;;;;;;5.97;4.57;;;;;;;;;;5058105;28;20044;-60
2023/05/20 10:37:27;;;;;;;6.75;4.95;;;;;;;;;;5058801;28;20421;-62
2023/05/20 10:40:03;;;;;;;5.15;4.65;;;;;;;;;;5064073;28;20059;-61
2023/05/20 10:42:30;;;;;;;5.35;4.82;;;;;;;;;;5054007;28;20409;-60
2023/05/20 10:44:57;;;;;;;18.15;5.43;;;;;;;;;;5054560;28;20064;-60
2023/05/20 10:47:23;;;;;;;6.05;4.93;;;;;;;;;;5058238;28;20049;-61
2023/05/20 10:49:52;;;;;;;6.60;4.97;;;;;;;;;;5067718;28;20057;-61
2023/05/20 10:52:19;;;;;;;6.10;4.80;;;;;;;;;;5072506;28;20065;-59
2023/05/20 10:54:46;;;;;;;5.10;4.40;;;;;;;;;;5063362;28;20413;-59
2023/05/20 10:57:13;;;;;;;5.05;4.55;;;;;;;;;;5074632;28;20072;-59
2023/05/20 10:59:41;;;;;;;4.68;4.25;;;;;;;;;;5066359;28;20123;-59
2023/05/20 11:02:12;;;;;;;4.93;4.35;;;;;;;;;;5056623;28;20057;-59
2023/05/20 11:04:39;;;;;;;4.75;4.10;;;;;;;;;;5074370;28;20056;-59
2023/05/20 11:07:08;;;;;;;5.47;4.03;;;;;;;;;;5072986;28;20592;-60
2023/05/20 11:09:34;;;;;;;4.90;4.37;;;;;;;;;;5057693;28;20052;-60
2023/05/20 11:12:01;;;;;;;5.43;4.30;;;;;;;;;;5054741;28;20521;-59
2023/05/20 11:14:28;;;;;;;4.97;4.25;;;;;;;;;;5061068;28;20068;-59
2023/05/20 11:16:56;;;;;;;4.43;3.80;;;;;;;;;;5060983;28;20056;-59
2023/05/20 11:19:23;;;;;;;6.75;4.47;;;;;;;;;;5062902;28;20384;-59
2023/05/20 11:21:50;;;;;;;5.25;4.47;;;;;;;;;;5062663;28;20052;-60
2023/05/20 11:24:24;;;;;;;5.32;3.97;;;;;;;;;;5066652;28;20060;-59
2023/05/20 11:26:54;;;;;;;5.75;4.63;;;;;;;;;;5061368;28;20049;-59
2023/05/20 11:29:26;;;;;;;5.95;4.40;;;;;;;;;;5054210;28;20053;-60
2023/05/20 11:31:52;;;;;;;5.95;4.35;;;;;;;;;;5053638;28;20490;-59
2023/05/20 11:34:20;;;;;;;5.00;4.05;;;;;;;;;;5057931;28;20056;-59
2023/05/20 11:36:49;;;;;;;5.45;3.45;;;;;;;;;;5068359;28;20056;-60
2023/05/20 11:39:16;;;;;;;4.43;3.40;;;;;;;;;;5067401;28;20048;-60
2023/05/20 11:41:45;;;;;;;4.00;3.60;;;;;;;;;;5073252;28;20063;-60
2023/05/20 11:44:12;;;;;;;4.45;3.55;;;;;;;;;;5054848;28;20502;-60
2023/05/20 11:46:42;;;;;;;4.65;3.20;;;;;;;;;;5053303;28;20064;-59
2023/05/20 11:49:09;;;;;;;4.97;3.55;;;;;;;;;;5053035;28;20044;-60
2023/05/20 11:51:37;;;;;;;4.78;3.40;;;;;;;;;;5053238;28;20049;-60
2023/05/20 11:54:05;;;;;;;4.55;3.67;;;;;;;;;;5054104;28;20056;-59
2023/05/20 11:56:33;;;;;;;4.10;3.17;;;;;;;;;;5059910;28;20059;-59
2023/05/20 11:59:01;;;;;;;6.45;3.10;;;;;;;;;;5074074;28;20053;-59
2023/05/20 12:01:29;;;;;;;4.63;3.20;;;;;;;;;;5061009;28;20068;-60
2023/05/20 12:03:56;;;;;;;3.47;2.72;;;;;;;;;;5054046;28;20056;-60
2023/05/20 12:06:23;;;;;;;3.58;2.95;;;;;;;;;;5053259;28;20053;-60
2023/05/20 12:08:49;;;;;;;4.35;2.80;;;;;;;;;;5064287;28;20056;-60
2023/05/20 12:11:16;;;;;;;3.85;3.05;;;;;;;;;;5059607;28;20513;-60
2023/05/20 12:13:43;;;;;;;4.05;3.10;;;;;;;;;;5073248;28;20056;-60
2023/05/20 12:16:11;;;;;;;4.32;3.40;;;;;;;;;;5067606;28;20170;-59
2023/05/20 12:18:38;;;;;;;4.97;3.23;;;;;;;;;;5056107;28;20049;-60
2023/05/20 12:21:05;;;;;;;4.20;2.78;;;;;;;;;;5055819;28;20056;-60
2023/05/20 12:23:32;;;;;;;5.30;3.35;;;;;;;;;;5052789;28;20048;-60
2023/05/20 12:25:59;;;;;;;4.93;3.60;;;;;;;;;;5056225;28;20049;-60
2023/05/20 12:28:28;;;;;;;5.93;3.75;;;;;;;;;;5066096;28;20086;-60
2023/05/20 12:30:54;;;;;;;5.07;3.65;;;;;;;;;;5071678;28;20052;-61
2023/05/20 12:33:23;;;;;;;5.60;3.50;;;;;;;;;;5056253;28;20068;-60
2023/05/20 12:35:49;;;;;;;5.07;4.05;;;;;;;;;;5073245;28;20056;-60
2023/05/20 12:38:16;;;;;;;4.20;3.58;;;;;;;;;;5062099;28;20053;-60
2023/05/20 12:40:43;;;;;;;4.47;3.42;;;;;;;;;;5055183;28;20489;-60
2023/05/20 12:43:10;;;;;;;4.40;3.40;;;;;;;;;;5055873;28;20057;-61
2023/05/20 12:45:37;;;;;;;6.18;3.33;;;;;;;;;;5051946;28;20057;-60
2023/05/20 12:48:04;;;;;;;3.92;3.28;;;;;;;;;;5053051;28;20156;-60
2023/05/20 12:50:32;;;;;;;3.65;3.33;;;;;;;;;;5051922;28;20067;-60
2023/05/20 12:52:59;;;;;;;4.72;3.20;;;;;;;;;;5059402;28;20063;-60
2023/05/20 12:55:26;;;;;;;4.57;3.38;;;;;;;;;;5052412;28;20053;-60
2023/05/20 12:57:54;;;;;;;3.97;3.33;;;;;;;;;;5055755;28;20410;-60
2023/05/20 13:00:21;;;;;;;3.40;3.10;;;;;;;;;;5063475;28;20051;-60
2023/05/20 13:02:48;;;;;;;3.83;3.00;;;;;;;;;;5072720;28;20052;-60
2023/05/20 13:05:15;;;;;;;5.03;3.10;;;;;;;;;;5069424;28;20048;-60
2023/05/20 13:07:43;;;;;;;3.95;3.15;;;;;;;;;;5071526;28;20056;-60
2023/05/20 13:10:10;;;;;;;4.05;2.85;;;;;;;;;;5057312;28;20486;-59
2023/05/20 13:12:37;;;;;;;6.00;2.97;;;;;;;;;;5057902;28;20044;-59
2023/05/20 13:15:05;;;;;;;4.15;3.17;;;;;;;;;;5068281;28;20060;-60
2023/05/20 13:17:31;;;;;;;5.40;3.00;;;;;;;;;;5051711;28;20516;-60
2023/05/20 13:19:58;;;;;;;3.67;3.03;;;;;;;;;;5058679;28;20049;-60
2023/05/20 13:22:28;;;;;;;4.03;3.22;;;;;;;;;;5065559;28;20060;-60
2023/05/20 13:25:00;;;;;;;3.25;2.92;;;;;;;;;;5052735;28;20060;-60
2023/05/20 13:27:29;;;;;;;3.80;3.50;;;;;;;;;;5070274;28;20413;-60
2023/05/20 13:29:56;;;;;;;5.75;3.60;;;;;;;;;;5059426;28;20048;-60
2023/05/20 13:32:23;;;;;;;3.83;2.92;;;;;;;;;;5072253;28;20405;-60
2023/05/20 13:34:50;;;;;;;3.53;2.97;;;;;;;;;;5065284;28;20425;-60
2023/05/20 13:37:17;;;;;;;4.40;3.08;;;;;;;;;;5055249;28;20148;-60
2023/05/20 13:39:44;;;;;;;3.70;2.92;;;;;;;;;;5066095;28;20496;-60
2023/05/20 13:42:12;;;;;;;3.85;3.33;;;;;;;;;;5071103;28;20056;-60
2023/05/20 13:44:39;;;;;;;3.53;3.10;;;;;;;;;;5052191;28;20060;-60
2023/05/20 13:47:06;;;;;;;4.15;3.08;;;;;;;;;;5052809;28;20402;-60
2023/05/20 13:49:36;;;;;;;3.17;2.85;;;;;;;;;;5051860;28;20056;-60
2023/05/20 13:52:03;;;;;;;3.85;2.80;;;;;;;;;;5065719;28;20497;-60
2023/05/20 13:54:30;;;;;;;6.25;3.30;;;;;;;;;;5061456;28;20064;-60
2023/05/20 13:56:57;;;;;;;3.13;2.83;;;;;;;;;;5050691;28;20053;-59
2023/05/20 13:59:26;;;;;;;4.03;3.20;;;;;;;;;;5054055;28;20052;-60
2023/05/20 14:01:53;;;;;;;5.15;3.30;;;;;;;;;;5061988;28;20049;-60
2023/05/20 14:04:21;;;;;;;3.50;3.03;;;;;;;;;;5072070;28;20147;-60
2023/05/20 14:06:47;;;;;;;4.07;3.33;;;;;;;;;;5070286;28;20057;-60
2023/05/20 14:09:14;;;;;;;4.47;3.10;;;;;;;;;;5063692;28;20044;-60
2023/05/20 14:11:41;;;;;;;3.10;2.80;;;;;;;;;;5052224;28;20401;-60
2023/05/20 14:14:08;;;;;;;3.67;2.80;;;;;;;;;;5061925;28;20045;-60
2023/05/20 14:16:38;;;;;;;4.20;3.55;;;;;;;;;;5068578;28;20050;-61
2023/05/20 14:19:05;;;;;;;4.60;3.13;;;;;;;;;;5054204;28;20049;-60
2023/05/20 14:21:32;;;;;;;4.18;3.10;;;;;;;;;;5053625;28;20049;-60
2023/05/20 14:23:59;;;;;;;3.95;2.85;;;;;;;;;;5065211;28;20055;-60
2023/05/20 14:26:25;;;;;;;3.50;2.90;;;;;;;;;;5062430;28;20060;-60
2023/05/20 14:28:52;;;;;;;4.50;3.17;;;;;;;;;;5060453;28;20051;-60
2023/05/20 14:31:19;;;;;;;5.03;3.30;;;;;;;;;;5071540;28;20057;-59
2023/05/20 14:33:48;;;;;;;4.20;2.97;;;;;;;;;;5070776;28;20056;-60
2023/05/20 14:36:14;;;;;;;3.67;2.97;;;;;;;;;;5060926;28;20479;-60
2023/05/20 14:38:41;;;;;;;4.60;3.25;;;;;;;;;;5052959;28;20048;-60
2023/05/20 14:41:08;;;;;;;4.15;3.10;;;;;;;;;;5055233;28;20045;-60
2023/05/20 14:43:35;;;;;;;3.33;2.83;;;;;;;;;;5061458;28;20505;-60
2023/05/20 14:46:02;;;;;;;3.53;3.00;;;;;;;;;;5055610;28;20049;-60